Time;durP1;ratioP1;P1;durP2;ratioP2;P2;SDS_P1;SDS_P2;PMS_P1;PMS_P2;Temp;Humidity;BMP_temperature;BMP_pressure;BME280_temperature;BME280_humidity;BME280_pressure;Samples;Min_cycle;Max_cycle;Signal;HPM_P1;HPM_P2
2022/09/03 00:00:00;;;;;;;1.53;1.30;;;13.90;99.90;;;;;;4131076;28;20031;-62
2022/09/03 00:02:11;;;;;;;1.33;1.23;;;13.90;99.90;;;;;;4127457;28;20376;-63
2022/09/03 00:04:23;;;;;;;2.35;1.75;;;13.90;99.90;;;;;;4131903;28;20042;-62
2022/09/03 00:06:37;;;;;;;1.70;1.60;;;13.90;99.90;;;;;;4129854;28;20046;-64
2022/09/03 00:08:47;;;;;;;2.90;2.40;;;13.90;99.90;;;;;;4131422;28;20549;-64
2022/09/03 00:10:57;;;;;;;14.40;12.43;;;13.90;99.90;;;;;;4130050;28;20100;-63
2022/09/03 00:13:01;;;;;;;8.45;7.70;;;13.80;99.90;;;;;;4131317;28;20430;-62
2022/09/03 00:15:06;;;;;;;5.95;5.35;;;13.80;99.90;;;;;;4128991;28;20069;-62
2022/09/03 00:17:15;;;;;;;5.03;4.53;;;13.80;99.90;;;;;;4131358;28;20482;-62
2022/09/03 00:19:41;;;;;;;5.53;5.03;;;13.80;99.90;;;;;;4129831;28;20026;-62
2022/09/03 00:21:57;;;;;;;7.85;6.05;;;13.80;99.90;;;;;;4131356;28;20092;-62
2022/09/03 00:24:02;;;;;;;3.15;2.95;;;13.80;99.90;;;;;;4129863;28;20078;-62
2022/09/03 00:26:12;;;;;;;4.55;4.15;;;13.80;99.90;;;;;;4131446;28;20034;-62
2022/09/03 00:28:23;;;;;;;3.55;3.15;;;13.80;99.90;;;;;;4129622;28;20487;-63
2022/09/03 00:30:24;;;;;;;7.75;6.95;;;13.80;99.90;;;;;;4131273;28;20097;-62
2022/09/03 00:32:39;;;;;;;10.18;9.18;;;13.80;99.90;;;;;;4129938;28;20035;-62
2022/09/03 00:34:51;;;;;;;4.70;4.15;;;13.80;99.90;;;;;;4131435;28;20081;-63
2022/09/03 00:36:53;;;;;;;8.23;6.38;;;13.80;99.90;;;;;;4129934;28;20077;-62
2022/09/03 00:38:54;;;;;;;5.72;4.32;;;13.80;99.90;;;;;;4131153;28;20031;-62
2022/09/03 00:41:40;;;;;;;2.38;2.17;;;13.80;99.90;;;;;;4129462;28;20027;-62
2022/09/03 00:43:58;;;;;;;3.55;3.22;;;13.80;99.90;;;;;;4112673;28;20070;-63
2022/09/03 00:46:05;;;;;;;3.53;3.22;;;13.80;99.90;;;;;;4111410;28;20043;-62
2022/09/03 00:48:27;;;;;;;3.95;3.40;;;13.80;99.90;;;;;;4115558;28;20458;-62
2022/09/03 00:50:54;;;;;;;3.58;3.28;;;13.80;99.90;;;;;;4128340;28;20030;-62
2022/09/03 00:53:07;;;;;;;2.42;2.22;;;13.80;99.90;;;;;;4128258;28;20438;-63
2022/09/03 00:55:22;;;;;;;3.10;2.80;;;13.90;99.90;;;;;;4129804;28;20352;-62
2022/09/03 00:57:47;;;;;;;3.92;2.28;;;13.80;99.90;;;;;;4130434;28;20031;-62
2022/09/03 01:00:01;;;;;;;2.60;2.40;;;13.80;99.90;;;;;;4130182;28;20026;-62
2022/09/03 01:02:17;;;;;;;3.22;2.17;;;13.80;99.90;;;;;;4129887;28;20530;-62
2022/09/03 01:04:45;;;;;;;3.88;2.70;;;13.80;99.90;;;;;;4130150;28;20042;-62
2022/09/03 01:06:53;;;;;;;3.13;2.58;;;13.80;99.90;;;;;;4129205;28;20427;-61
2022/09/03 01:09:20;;;;;;;2.40;2.20;;;13.80;99.90;;;;;;4130795;28;20120;-62
2022/09/03 01:11:55;;;;;;;2.10;1.60;;;13.80;99.90;;;;;;4129123;28;20479;-62
2022/09/03 01:14:16;;;;;;;1.75;1.60;;;13.80;99.90;;;;;;4130651;28;20426;-62
2022/09/03 01:16:56;;;;;;;2.10;1.58;;;13.80;99.90;;;;;;4128918;28;20499;-62
2022/09/03 01:19:27;;;;;;;1.90;1.63;;;13.80;99.90;;;;;;4128786;28;20046;-62
2022/09/03 01:21:37;;;;;;;1.83;1.52;;;13.80;99.90;;;;;;4130195;28;20089;-63
2022/09/03 01:23:41;;;;;;;3.17;1.30;;;13.80;99.90;;;;;;4129289;28;20038;-62
2022/09/03 01:25:48;;;;;;;2.35;1.17;;;13.80;99.90;;;;;;4129875;28;20438;-62
2022/09/03 01:28:01;;;;;;;2.03;1.77;;;13.80;99.90;;;;;;4129350;28;20165;-62
2022/09/03 01:30:07;;;;;;;3.47;1.92;;;13.80;99.90;;;;;;4129687;28;20084;-63
2022/09/03 01:32:41;;;;;;;1.88;1.63;;;13.80;99.90;;;;;;4129666;28;20110;-62
2022/09/03 01:35:08;;;;;;;5.32;1.77;;;13.80;99.90;;;;;;4128379;28;20077;-62
2022/09/03 01:37:28;;;;;;;4.53;2.17;;;13.80;99.90;;;;;;4128415;28;20042;-62
2022/09/03 01:40:04;;;;;;;1.95;1.80;;;13.80;99.90;;;;;;4130339;28;20405;-63
2022/09/03 01:42:17;;;;;;;4.75;1.80;;;13.80;99.90;;;;;;4128827;28;20038;-62
2022/09/03 01:44:55;;;;;;;2.70;2.17;;;13.80;99.90;;;;;;4129882;28;20388;-62
2022/09/03 01:47:10;;;;;;;2.38;2.08;;;13.80;99.90;;;;;;4128544;28;20450;-62
2022/09/03 01:49:36;;;;;;;2.30;2.08;;;13.80;99.90;;;;;;4129525;28;20100;-62
2022/09/03 01:51:38;;;;;;;1.88;1.77;;;13.80;99.90;;;;;;4129314;28;20089;-62
2022/09/03 01:53:54;;;;;;;1.90;1.75;;;13.80;99.90;;;;;;4129085;28;20799;-62
2022/09/03 01:56:06;;;;;;;2.25;2.00;;;13.80;99.90;;;;;;4129192;28;20085;-65
2022/09/03 01:58:20;;;;;;;2.30;2.10;;;13.80;99.90;;;;;;4128743;28;20045;-62
2022/09/03 02:00:21;;;;;;;3.47;1.98;;;13.70;99.90;;;;;;4129227;28;20022;-62
2022/09/03 02:02:25;;;;;;;2.13;1.92;;;13.80;99.90;;;;;;4129108;28;20372;-62
2022/09/03 02:04:27;;;;;;;3.20;2.67;;;13.80;99.90;;;;;;4129011;28;20030;-63
2022/09/03 02:06:33;;;;;;;6.28;3.13;;;13.80;99.90;;;;;;4129125;28;20089;-62
2022/09/03 02:08:34;;;;;;;2.80;2.60;;;13.80;99.90;;;;;;4128582;28;20101;-63
2022/09/03 02:11:00;;;;;;;4.47;2.65;;;13.80;99.90;;;;;;4129422;28;20057;-62
2022/09/03 02:13:15;;;;;;;2.92;2.72;;;13.80;99.90;;;;;;4128582;28;20030;-62
2022/09/03 02:15:20;;;;;;;3.20;2.90;;;13.80;99.90;;;;;;4128216;28;20027;-62
2022/09/03 02:17:21;;;;;;;3.72;3.38;;;13.80;99.90;;;;;;4128663;28;20734;-63
2022/09/03 02:19:23;;;;;;;3.20;2.90;;;13.80;99.90;;;;;;4127914;28;20050;-62
2022/09/03 02:21:29;;;;;;;4.00;3.17;;;13.80;99.90;;;;;;4128066;28;20023;-64
2022/09/03 02:23:30;;;;;;;3.03;2.70;;;13.80;99.90;;;;;;4129219;28;20068;-62
2022/09/03 02:25:36;;;;;;;3.95;3.28;;;13.80;99.90;;;;;;4127937;28;20022;-62
2022/09/03 02:27:38;;;;;;;8.50;3.95;;;13.80;99.90;;;;;;4129427;28;20101;-62
2022/09/03 02:29:40;;;;;;;5.43;3.83;;;13.80;99.90;;;;;;4128017;28;20034;-63
2022/09/03 02:31:41;;;;;;;5.05;3.67;;;13.80;99.90;;;;;;4129612;28;20065;-62
2022/09/03 02:33:45;;;;;;;5.10;3.40;;;13.70;99.90;;;;;;4128220;28;20541;-61
2022/09/03 02:35:46;;;;;;;5.53;3.78;;;13.80;99.90;;;;;;4129554;28;20051;-62
2022/09/03 02:37:47;;;;;;;4.10;3.60;;;13.80;99.90;;;;;;4127809;28;20026;-63
2022/09/03 02:39:50;;;;;;;5.00;3.85;;;13.80;99.90;;;;;;4129227;28;20088;-62
2022/09/03 02:41:57;;;;;;;4.97;4.30;;;13.70;99.90;;;;;;4127579;28;20391;-63
2022/09/03 02:44:04;;;;;;;5.35;4.35;;;13.70;99.90;;;;;;4129209;28;20042;-63
2022/09/03 02:46:10;;;;;;;5.63;3.72;;;13.70;99.90;;;;;;4127730;28;20054;-64
2022/09/03 02:48:14;;;;;;;4.78;4.28;;;13.70;99.90;;;;;;4129148;28;20403;-62
2022/09/03 02:50:15;;;;;;;6.90;3.72;;;13.70;99.90;;;;;;4127524;28;20022;-62
2022/09/03 02:52:16;;;;;;;5.18;4.25;;;13.70;99.90;;;;;;4128719;28;20097;-62
2022/09/03 02:54:17;;;;;;;4.10;3.67;;;13.70;99.90;;;;;;4127999;28;20482;-62
2022/09/03 02:56:19;;;;;;;6.22;4.30;;;13.70;99.90;;;;;;4128179;28;20034;-62
2022/09/03 02:58:20;;;;;;;5.03;4.38;;;13.70;99.90;;;;;;4128266;28;20057;-62
2022/09/03 03:00:21;;;;;;;4.18;3.78;;;13.70;99.90;;;;;;4127748;28;20487;-62
2022/09/03 03:02:22;;;;;;;5.57;4.25;;;13.70;99.90;;;;;;4128919;28;20038;-63
2022/09/03 03:04:23;;;;;;;4.25;3.45;;;13.70;99.90;;;;;;4127770;28;20426;-62
2022/09/03 03:06:25;;;;;;;5.60;4.22;;;13.70;99.90;;;;;;4128776;28;20490;-62
2022/09/03 03:08:29;;;;;;;5.88;3.95;;;13.70;99.90;;;;;;4127355;28;20042;-62
2022/09/03 03:10:30;;;;;;;6.68;4.18;;;13.70;99.90;;;;;;4129004;28;20039;-62
2022/09/03 03:12:31;;;;;;;4.47;4.07;;;13.70;99.90;;;;;;4127483;28;20043;-62
2022/09/03 03:14:32;;;;;;;8.05;4.47;;;13.70;99.90;;;;;;4128601;28;20076;-63
2022/09/03 03:16:33;;;;;;;4.32;3.67;;;13.70;99.90;;;;;;4127465;28;20042;-63
2022/09/03 03:18:34;;;;;;;5.70;4.07;;;13.70;99.90;;;;;;4128757;28;20030;-62
2022/09/03 03:20:36;;;;;;;5.13;3.05;;;13.70;99.90;;;;;;4127374;28;20556;-62
2022/09/03 03:22:37;;;;;;;6.20;4.00;;;13.70;99.90;;;;;;4128743;28;20042;-63
2022/09/03 03:24:39;;;;;;;4.78;4.20;;;13.70;99.90;;;;;;4127594;28;20069;-62
2022/09/03 03:26:41;;;;;;;6.20;3.95;;;13.70;99.90;;;;;;4127740;28;20035;-62
2022/09/03 03:28:42;;;;;;;5.85;3.53;;;13.70;99.90;;;;;;4127857;28;20022;-63
2022/09/03 03:30:46;;;;;;;6.70;4.13;;;13.70;99.90;;;;;;4127401;28;20038;-62
2022/09/03 03:32:47;;;;;;;4.35;3.70;;;13.70;99.90;;;;;;4128230;28;20433;-64
2022/09/03 03:34:48;;;;;;;4.72;3.38;;;13.70;99.90;;;;;;4127804;28;20070;-63
2022/09/03 03:36:49;;;;;;;3.50;3.00;;;13.70;99.90;;;;;;4128511;28;20046;-63
2022/09/03 03:38:54;;;;;;;6.10;2.80;;;13.70;99.90;;;;;;4127148;28;20061;-62
2022/09/03 03:40:55;;;;;;;3.50;3.20;;;13.70;99.90;;;;;;4128526;28;20089;-62
2022/09/03 03:42:57;;;;;;;4.20;3.53;;;13.60;99.90;;;;;;4126901;28;20039;-62
2022/09/03 03:44:58;;;;;;;3.25;2.95;;;13.60;99.90;;;;;;4128619;28;20097;-61
2022/09/03 03:46:59;;;;;;;3.33;2.92;;;13.60;99.90;;;;;;4126968;28;20364;-62
2022/09/03 03:49:01;;;;;;;4.63;3.25;;;13.60;99.90;;;;;;4128563;28;20038;-62
2022/09/03 03:51:05;;;;;;;4.57;3.55;;;13.60;99.90;;;;;;4126967;28;20035;-64
2022/09/03 03:53:07;;;;;;;5.97;3.35;;;13.50;99.90;;;;;;4128752;28;20096;-63
2022/09/03 03:55:08;;;;;;;4.05;3.28;;;13.50;99.90;;;;;;4126947;28;20038;-62
2022/09/03 03:57:09;;;;;;;5.38;3.38;;;13.50;99.90;;;;;;4128185;28;20491;-63
2022/09/03 03:59:10;;;;;;;3.67;3.05;;;13.50;99.90;;;;;;4127544;28;20026;-63
2022/09/03 04:01:17;;;;;;;4.65;3.30;;;13.50;99.90;;;;;;4127569;28;20057;-62
2022/09/03 04:03:18;;;;;;;4.10;3.17;;;13.40;99.90;;;;;;4127716;28;20026;-63
2022/09/03 04:05:19;;;;;;;5.60;3.03;;;13.40;99.90;;;;;;4127408;28;20450;-63
2022/09/03 04:07:21;;;;;;;4.05;3.00;;;13.40;99.90;;;;;;4127936;28;20109;-63
2022/09/03 04:09:22;;;;;;;6.20;3.40;;;13.40;99.90;;;;;;4126748;28;20085;-62
2022/09/03 04:11:24;;;;;;;4.07;3.50;;;13.40;99.90;;;;;;4128169;28;20438;-63
2022/09/03 04:13:45;;;;;;;3.73;3.43;;;13.40;99.90;;;;;;4126522;28;20100;-63
2022/09/03 04:15:46;;;;;;;6.45;3.38;;;13.40;99.90;;;;;;4128366;28;20096;-63
2022/09/03 04:17:47;;;;;;;6.28;3.80;;;13.40;99.90;;;;;;4126672;28;20022;-64
2022/09/03 04:19:49;;;;;;;6.35;2.88;;;13.40;99.90;;;;;;4128169;28;20039;-64
2022/09/03 04:21:50;;;;;;;5.50;3.60;;;13.40;99.90;;;;;;4127009;28;20050;-63
2022/09/03 04:23:52;;;;;;;6.07;3.40;;;13.40;99.90;;;;;;4128397;28;20042;-62
2022/09/03 04:25:53;;;;;;;4.03;3.33;;;13.40;99.90;;;;;;4126490;28;20057;-63
2022/09/03 04:27:54;;;;;;;5.83;3.67;;;13.40;99.90;;;;;;4127890;28;20112;-63
2022/09/03 04:29:56;;;;;;;5.27;3.73;;;13.40;99.90;;;;;;4126572;28;20089;-62
2022/09/03 04:34:17;;;;;;;5.35;3.92;;;13.40;99.90;;;;;;4127294;28;20065;-60
2022/09/03 04:36:20;;;;;;;5.45;4.43;;;13.40;99.90;;;;;;4127977;28;20430;-62
2022/09/03 04:38:23;;;;;;;9.47;4.57;;;13.50;99.90;;;;;;4127583;28;20548;-62
2022/09/03 04:40:24;;;;;;;8.40;4.75;;;13.50;99.90;;;;;;4130676;28;20030;-64
2022/09/03 04:42:26;;;;;;;6.23;4.33;;;13.50;99.90;;;;;;4129877;28;20798;-62
2022/09/03 04:44:27;;;;;;;5.10;4.50;;;13.50;99.90;;;;;;4129858;28;20052;-62
2022/09/03 04:46:32;;;;;;;7.22;4.68;;;13.50;99.90;;;;;;4130156;28;20035;-62
2022/09/03 04:48:35;;;;;;;6.80;4.80;;;13.50;99.90;;;;;;4129546;28;20050;-62
2022/09/03 04:50:36;;;;;;;5.53;4.17;;;13.50;99.90;;;;;;4130286;28;20074;-61
2022/09/03 04:52:37;;;;;;;5.07;4.20;;;13.50;99.90;;;;;;4129322;28;20073;-62
2022/09/03 04:54:38;;;;;;;7.07;4.70;;;13.50;99.90;;;;;;4130802;28;20026;-61
2022/09/03 04:56:39;;;;;;;5.88;4.43;;;13.50;99.90;;;;;;4129260;28;20097;-61
2022/09/03 04:58:42;;;;;;;5.00;4.47;;;13.50;99.90;;;;;;4130907;28;20067;-63
2022/09/03 05:00:43;;;;;;;6.80;4.45;;;13.50;99.90;;;;;;4129062;28;20022;-62
2022/09/03 05:02:47;;;;;;;7.90;4.57;;;13.60;99.90;;;;;;4130645;28;20081;-62
2022/09/03 05:04:48;;;;;;;6.50;4.97;;;13.60;99.90;;;;;;4129394;28;20030;-62
2022/09/03 05:06:49;;;;;;;7.45;5.95;;;13.60;99.90;;;;;;4129264;28;20088;-62
2022/09/03 05:08:51;;;;;;;7.80;5.38;;;13.70;99.90;;;;;;4128550;28;20088;-62
2022/09/03 05:10:59;;;;;;;17.23;12.68;;;13.70;99.90;;;;;;4129747;28;20038;-63
2022/09/03 05:13:03;;;;;;;15.00;13.20;;;13.70;99.90;;;;;;4128390;28;20109;-63
2022/09/03 05:15:05;;;;;;;13.05;9.93;;;13.80;99.90;;;;;;4129452;28;20030;-62
2022/09/03 05:17:06;;;;;;;21.33;17.50;;;13.70;99.90;;;;;;4128612;28;20093;-62
2022/09/03 05:19:08;;;;;;;16.67;14.32;;;13.80;99.90;;;;;;4128391;28;20081;-62
2022/09/03 05:21:12;;;;;;;18.00;12.68;;;13.70;99.90;;;;;;4128656;28;20039;-62
2022/09/03 05:23:13;;;;;;;13.82;10.25;;;13.70;99.90;;;;;;4128320;28;20046;-63
2022/09/03 05:25:14;;;;;;;10.82;9.27;;;13.70;99.90;;;;;;4129244;28;20046;-63
2022/09/03 05:27:16;;;;;;;11.15;8.63;;;13.80;99.90;;;;;;4128064;28;20043;-62
2022/09/03 05:29:18;;;;;;;9.82;8.30;;;13.80;99.90;;;;;;4129556;28;20434;-62
2022/09/03 05:31:21;;;;;;;11.60;6.68;;;13.70;99.90;;;;;;4128038;28;20026;-62
2022/09/03 05:33:22;;;;;;;4.75;4.00;;;13.70;99.90;;;;;;4129279;28;20042;-62
2022/09/03 05:35:24;;;;;;;7.60;5.20;;;13.80;99.90;;;;;;4128523;28;21341;-62
2022/09/03 05:37:26;;;;;;;9.90;5.40;;;13.70;99.90;;;;;;4129555;28;20030;-62
2022/09/03 05:39:27;;;;;;;4.47;3.90;;;13.80;99.90;;;;;;4128236;28;20046;-62
2022/09/03 05:41:28;;;;;;;5.80;4.55;;;13.80;99.90;;;;;;4129584;28;20038;-63
2022/09/03 05:43:30;;;;;;;10.77;6.97;;;13.80;99.90;;;;;;4127804;28;20864;-63
2022/09/03 05:45:31;;;;;;;5.60;4.63;;;13.80;99.90;;;;;;4129148;28;20042;-62
2022/09/03 05:47:33;;;;;;;5.20;4.53;;;13.80;99.90;;;;;;4128119;28;20101;-62
2022/09/03 05:49:34;;;;;;;5.63;4.82;;;13.80;99.90;;;;;;4127889;28;20026;-62
2022/09/03 05:51:36;;;;;;;5.47;4.18;;;13.80;99.90;;;;;;4128222;28;20045;-62
2022/09/03 05:53:39;;;;;;;5.22;4.10;;;13.80;99.90;;;;;;4128163;28;20026;-66
2022/09/03 05:55:40;;;;;;;5.15;4.07;;;13.80;99.90;;;;;;4128704;28;20061;-62
2022/09/03 05:57:42;;;;;;;5.80;4.32;;;13.80;99.90;;;;;;4127636;28;20543;-62
2022/09/03 05:59:43;;;;;;;5.05;3.95;;;13.80;99.90;;;;;;4128698;28;20084;-62
2022/09/03 06:01:45;;;;;;;5.18;4.40;;;13.80;99.90;;;;;;4127654;28;20081;-61
2022/09/03 06:03:53;;;;;;;7.43;4.38;;;13.80;99.90;;;;;;4129204;28;20041;-61
2022/09/03 06:05:54;;;;;;;7.60;4.60;;;13.90;99.90;;;;;;4127642;28;20479;-61
2022/09/03 06:07:55;;;;;;;6.30;4.57;;;13.90;99.90;;;;;;4128928;28;20034;-62
2022/09/03 06:09:57;;;;;;;7.35;4.90;;;13.90;99.90;;;;;;4127312;28;20035;-63
2022/09/03 06:11:58;;;;;;;9.13;6.25;;;13.90;99.90;;;;;;4129093;28;20395;-62
2022/09/03 06:14:04;;;;;;;7.97;5.03;;;13.90;99.90;;;;;;4127210;28;20022;-63
2022/09/03 06:16:07;;;;;;;7.03;4.43;;;13.90;99.90;;;;;;4128413;28;20054;-62
2022/09/03 06:18:08;;;;;;;7.13;4.30;;;13.90;99.90;;;;;;4128020;28;20081;-62
2022/09/03 06:20:11;;;;;;;5.82;4.55;;;13.80;99.90;;;;;;4129097;28;20084;-62
2022/09/03 06:22:12;;;;;;;7.60;4.00;;;13.80;99.90;;;;;;4127659;28;20076;-61
2022/09/03 06:24:19;;;;;;;8.07;4.70;;;13.80;99.90;;;;;;4128871;28;20023;-61
2022/09/03 06:26:20;;;;;;;7.88;4.90;;;13.90;99.90;;;;;;4128212;28;20112;-63
2022/09/03 06:28:21;;;;;;;6.25;4.68;;;13.90;99.90;;;;;;4128337;28;20030;-62
2022/09/03 06:30:23;;;;;;;6.40;4.68;;;13.90;99.90;;;;;;4128536;28;20023;-62
2022/09/03 06:32:24;;;;;;;6.93;4.15;;;13.90;99.90;;;;;;4127649;28;20026;-61
2022/09/03 06:34:26;;;;;;;6.50;4.15;;;13.90;99.90;;;;;;4129109;28;20088;-61
2022/09/03 06:36:27;;;;;;;12.45;5.07;;;13.90;99.90;;;;;;4127916;28;20514;-62
2022/09/03 06:38:30;;;;;;;7.22;4.78;;;14.00;99.90;;;;;;4129101;28;20093;-62
2022/09/03 06:40:32;;;;;;;6.70;5.35;;;14.00;99.90;;;;;;4127366;28;20030;-61
2022/09/03 06:42:33;;;;;;;6.10;4.75;;;14.00;99.90;;;;;;4129434;28;20035;-62
2022/09/03 06:44:34;;;;;;;7.22;5.80;;;14.00;99.90;;;;;;4126977;28;20042;-61
2022/09/03 06:46:37;;;;;;;7.80;5.45;;;14.00;99.90;;;;;;4128976;28;20026;-62
2022/09/03 06:48:39;;;;;;;5.00;4.50;;;14.00;99.90;;;;;;4127305;28;20407;-63
2022/09/03 06:50:40;;;;;;;11.05;4.25;;;14.00;99.90;;;;;;4128856;28;20426;-62
2022/09/03 06:52:42;;;;;;;6.38;4.90;;;14.00;99.90;;;;;;4125830;28;20042;-61
2022/09/03 06:54:43;;;;;;;6.72;5.07;;;14.00;99.90;;;;;;4128609;28;20089;-62
2022/09/03 06:56:44;;;;;;;6.82;5.45;;;14.00;99.90;;;;;;4127554;28;20022;-62
2022/09/03 06:58:46;;;;;;;7.43;4.70;;;14.10;99.90;;;;;;4128082;28;20034;-62
2022/09/03 07:00:48;;;;;;;6.57;5.32;;;14.10;99.90;;;;;;4127490;28;20572;-63
2022/09/03 07:02:57;;;;;;;6.45;5.28;;;14.20;99.90;;;;;;4127708;28;20026;-62
2022/09/03 07:04:59;;;;;;;5.30;4.65;;;14.20;99.90;;;;;;4128124;28;20026;-64
2022/09/03 07:07:01;;;;;;;9.60;6.47;;;14.20;99.90;;;;;;4127038;28;20014;-63
2022/09/03 07:09:02;;;;;;;8.07;5.47;;;14.30;99.90;;;;;;4128387;28;20050;-61
2022/09/03 07:11:09;;;;;;;9.38;5.38;;;14.30;99.90;;;;;;4126659;28;20104;-62
2022/09/03 07:13:10;;;;;;;5.25;4.70;;;14.30;99.90;;;;;;4128370;28;20070;-63
2022/09/03 07:15:12;;;;;;;7.38;5.53;;;14.40;99.90;;;;;;4127106;28;20823;-61
2022/09/03 07:17:13;;;;;;;6.35;5.40;;;14.40;99.90;;;;;;4120508;28;20445;-61
2022/09/03 07:19:15;;;;;;;5.88;4.70;;;14.50;99.90;;;;;;4126790;28;20052;-62
2022/09/03 07:21:21;;;;;;;6.35;4.57;;;14.50;99.90;;;;;;4128489;28;20112;-66
2022/09/03 07:23:22;;;;;;;5.45;4.22;;;14.60;99.90;;;;;;4126610;28;20154;-61
2022/09/03 07:25:25;;;;;;;6.95;4.45;;;14.60;99.90;;;;;;4127900;28;20098;-64
2022/09/03 07:27:26;;;;;;;5.00;4.50;;;14.60;99.90;;;;;;4126448;28;20042;-62
2022/09/03 07:29:27;;;;;;;7.88;4.72;;;14.60;99.90;;;;;;4128411;28;20034;-63
2022/09/03 07:31:31;;;;;;;5.57;4.28;;;14.70;99.90;;;;;;4126465;28;20438;-62
2022/09/03 07:33:33;;;;;;;5.55;5.05;;;14.70;99.90;;;;;;4127763;28;20051;-62
2022/09/03 07:35:36;;;;;;;7.47;4.75;;;14.80;99.90;;;;;;4127515;28;20034;-62
2022/09/03 07:37:40;;;;;;;7.75;4.80;;;15.00;99.90;;;;;;4127469;28;20077;-63
2022/09/03 07:39:41;;;;;;;5.22;3.63;;;15.00;99.90;;;;;;4127293;28;20045;-62
2022/09/03 07:41:44;;;;;;;6.82;3.90;;;15.20;99.90;;;;;;4127417;28;20414;-64
2022/09/03 07:43:46;;;;;;;3.90;3.15;;;15.30;99.90;;;;;;4128049;28;20418;-61
2022/09/03 07:45:50;;;;;;;3.17;2.88;;;15.40;99.90;;;;;;4126627;28;20077;-61
2022/09/03 07:47:51;;;;;;;5.20;3.40;;;15.40;99.90;;;;;;4127956;28;20031;-63
2022/09/03 07:49:52;;;;;;;6.88;3.53;;;15.50;99.90;;;;;;4126556;28;20080;-63
2022/09/03 07:51:55;;;;;;;5.45;3.15;;;15.50;99.90;;;;;;4128076;28;20142;-62
2022/09/03 07:53:58;;;;;;;3.63;3.15;;;15.60;99.90;;;;;;4126508;28;20623;-61
2022/09/03 07:56:05;;;;;;;5.05;2.75;;;15.70;99.90;;;;;;4128151;28;20352;-62
2022/09/03 07:58:06;;;;;;;3.55;2.83;;;15.80;99.90;;;;;;4126376;28;20101;-63
2022/09/03 08:00:08;;;;;;;4.07;2.97;;;15.90;99.90;;;;;;4127903;28;20050;-61
2022/09/03 08:02:09;;;;;;;3.08;2.70;;;15.90;99.90;;;;;;4126627;28;20566;-62
2022/09/03 08:04:10;;;;;;;3.35;2.78;;;15.90;99.90;;;;;;4127624;28;20065;-61
2022/09/03 08:06:13;;;;;;;4.47;3.00;;;15.90;99.90;;;;;;4126851;28;20503;-61
2022/09/03 08:08:14;;;;;;;2.53;2.33;;;15.90;99.90;;;;;;4124424;28;20096;-62
2022/09/03 08:10:15;;;;;;;2.97;2.60;;;15.90;99.90;;;;;;4126842;28;20034;-63
2022/09/03 08:12:16;;;;;;;2.67;2.47;;;15.90;99.90;;;;;;4127117;28;20030;-62
2022/09/03 08:14:17;;;;;;;3.95;2.60;;;15.80;99.90;;;;;;4128504;28;20684;-63
2022/09/03 08:16:19;;;;;;;2.10;2.00;;;15.80;99.90;;;;;;4129582;28;20494;-63
2022/09/03 08:18:21;;;;;;;3.78;2.40;;;15.80;99.90;;;;;;4129022;28;20085;-62
2022/09/03 08:20:22;;;;;;;3.88;2.17;;;15.90;99.90;;;;;;4128259;28;20034;-62
2022/09/03 08:22:24;;;;;;;3.70;2.50;;;16.00;99.90;;;;;;4131034;28;20031;-62
2022/09/03 08:24:25;;;;;;;2.00;1.90;;;16.10;99.90;;;;;;4129208;28;20035;-62
2022/09/03 08:26:26;;;;;;;1.95;1.83;;;16.10;99.90;;;;;;4131036;28;20105;-62
2022/09/03 08:28:28;;;;;;;2.33;1.70;;;16.10;99.90;;;;;;4128623;28;20042;-63
2022/09/03 08:30:30;;;;;;;4.30;2.97;;;16.10;99.90;;;;;;4131063;28;20066;-63
2022/09/03 08:32:31;;;;;;;2.40;2.20;;;16.00;99.90;;;;;;4129322;28;20085;-63
2022/09/03 08:34:32;;;;;;;2.28;2.08;;;15.90;99.90;;;;;;4130908;28;20038;-63
2022/09/03 08:36:36;;;;;;;2.15;1.83;;;15.80;99.90;;;;;;4129629;28;20097;-63
2022/09/03 08:38:37;;;;;;;2.40;2.20;;;15.70;99.90;;;;;;4131003;28;20043;-63
2022/09/03 08:40:38;;;;;;;2.33;2.13;;;15.60;99.90;;;;;;4129592;28;20185;-63
2022/09/03 08:43:08;;;;;;;3.17;2.67;;;15.70;99.90;;;;;;4129859;28;20418;-63
2022/09/03 08:45:15;;;;;;;3.13;2.67;;;15.70;99.90;;;;;;4128593;28;20046;-63
2022/09/03 08:47:25;;;;;;;2.85;2.15;;;15.80;99.90;;;;;;4130529;28;20022;-62
2022/09/03 08:49:45;;;;;;;4.93;3.80;;;15.90;99.90;;;;;;4129328;28;20042;-62
2022/09/03 08:51:47;;;;;;;2.55;2.20;;;15.80;99.90;;;;;;4130797;28;20830;-62
2022/09/03 08:53:54;;;;;;;3.65;1.65;;;15.80;99.90;;;;;;4128847;28;20097;-63
2022/09/03 08:56:07;;;;;;;3.60;2.00;;;15.80;99.90;;;;;;4130507;28;20097;-63
2022/09/03 08:58:14;;;;;;;1.65;1.55;;;15.80;99.90;;;;;;4127490;28;20034;-61
2022/09/03 09:00:16;;;;;;;2.20;2.00;;;15.90;99.90;;;;;;4129899;28;20428;-62
2022/09/03 09:02:43;;;;;;;2.65;1.60;;;15.80;99.90;;;;;;4128933;28;20018;-60
2022/09/03 09:04:53;;;;;;;1.88;1.77;;;15.80;99.90;;;;;;4130115;28;20046;-62
2022/09/03 09:07:11;;;;;;;2.75;1.80;;;16.00;99.90;;;;;;4128931;28;20066;-63
2022/09/03 09:10:06;;;;;;;1.73;1.60;;;16.00;99.90;;;;;;4130209;28;20113;-62
2022/09/03 09:12:52;;;;;;;3.78;1.90;;;16.00;99.90;;;;;;4094496;28;20488;-63
2022/09/03 09:15:27;;;;;;;1.80;1.70;;;16.10;99.90;;;;;;4117515;28;20042;-62
2022/09/03 09:17:44;;;;;;;1.70;1.60;;;16.00;99.90;;;;;;4129866;28;20022;-63
2022/09/03 09:19:56;;;;;;;2.00;1.80;;;16.00;99.90;;;;;;4127457;28;20046;-62
2022/09/03 09:22:04;;;;;;;1.35;1.23;;;16.10;99.90;;;;;;4130128;28;20084;-64
2022/09/03 09:24:31;;;;;;;2.75;1.70;;;16.20;99.90;;;;;;4127865;28;20101;-62
2022/09/03 09:26:32;;;;;;;4.88;1.90;;;16.20;99.90;;;;;;4128491;28;20034;-66
2022/09/03 09:28:36;;;;;;;1.40;1.30;;;16.30;99.90;;;;;;4127805;28;20503;-63
2022/09/03 09:30:39;;;;;;;1.20;1.10;;;16.30;99.90;;;;;;4128963;28;20018;-62
2022/09/03 09:32:40;;;;;;;2.67;1.27;;;16.20;99.90;;;;;;4097151;28;20038;-62
2022/09/03 09:34:41;;;;;;;1.63;1.27;;;16.20;99.90;;;;;;4125163;28;20046;-63
2022/09/03 09:36:52;;;;;;;4.53;1.90;;;16.20;99.90;;;;;;4128545;28;20065;-63
2022/09/03 09:38:53;;;;;;;1.65;1.55;;;16.20;99.90;;;;;;4129647;28;20058;-63
2022/09/03 09:40:56;;;;;;;2.55;1.45;;;16.10;99.90;;;;;;4128887;28;20076;-62
2022/09/03 09:43:23;;;;;;;3.28;1.90;;;16.10;99.90;;;;;;4128299;28;20030;-63
2022/09/03 09:45:24;;;;;;;4.32;2.00;;;16.10;99.90;;;;;;4127095;28;20050;-63
2022/09/03 09:47:35;;;;;;;3.20;2.00;;;16.00;99.90;;;;;;4128758;28;20038;-66
2022/09/03 09:49:50;;;;;;;2.50;2.13;;;16.10;99.90;;;;;;4128825;28;20036;-69
2022/09/03 09:52:03;;;;;;;3.10;1.95;;;16.10;99.90;;;;;;4128806;28;20030;-65
2022/09/03 09:54:26;;;;;;;1.70;1.60;;;16.10;99.90;;;;;;4128526;28;20391;-64
2022/09/03 09:56:28;;;;;;;2.00;1.80;;;16.20;99.90;;;;;;4129235;28;20019;-63
2022/09/03 09:58:31;;;;;;;2.50;2.30;;;16.20;99.90;;;;;;4128159;28;20490;-63
2022/09/03 10:00:33;;;;;;;2.25;2.05;;;16.20;99.90;;;;;;4129153;28;20046;-63
2022/09/03 10:02:36;;;;;;;1.52;1.42;;;16.20;99.90;;;;;;4128434;28;20474;-63
2022/09/03 10:04:39;;;;;;;1.77;1.67;;;16.30;99.90;;;;;;4128562;28;20038;-66
2022/09/03 10:06:56;;;;;;;1.23;1.13;;;16.30;99.90;;;;;;4128373;28;20498;-62
2022/09/03 10:09:09;;;;;;;2.10;2.00;;;16.30;99.90;;;;;;4127989;28;20042;-62
2022/09/03 10:11:10;;;;;;;2.00;1.52;;;16.40;99.90;;;;;;4128306;28;20022;-63
2022/09/03 10:13:20;;;;;;;3.00;1.40;;;16.40;99.90;;;;;;4128036;28;20084;-65
2022/09/03 10:15:58;;;;;;;1.50;1.40;;;16.50;99.90;;;;;;4128394;28;20034;-62
2022/09/03 10:18:27;;;;;;;1.85;1.50;;;16.60;99.90;;;;;;4128896;28;20026;-71
2022/09/03 10:20:43;;;;;;;3.03;1.10;;;16.70;99.90;;;;;;4127446;28;20484;-61
2022/09/03 10:22:51;;;;;;;1.90;1.80;;;16.80;99.90;;;;;;4128840;28;20098;-62
2022/09/03 10:24:57;;;;;;;1.50;1.40;;;16.90;99.90;;;;;;4127341;28;20026;-62
2022/09/03 10:26:58;;;;;;;1.65;1.55;;;17.00;99.90;;;;;;4129790;28;20042;-64
2022/09/03 10:29:04;;;;;;;1.88;1.48;;;17.10;99.90;;;;;;4127401;28;20373;-64
2022/09/03 10:31:16;;;;;;;1.35;1.20;;;17.30;99.90;;;;;;4128869;28;20471;-66
2022/09/03 10:33:25;;;;;;;1.92;1.40;;;17.30;99.90;;;;;;4128053;28;20031;-69
2022/09/03 10:35:44;;;;;;;2.88;0.98;;;17.40;99.90;;;;;;4128413;28;20092;-66
2022/09/03 10:38:02;;;;;;;1.42;1.33;;;17.40;99.90;;;;;;4127105;28;20026;-62
2022/09/03 10:40:31;;;;;;;1.10;1.00;;;17.40;99.90;;;;;;4128929;28;20030;-63
2022/09/03 10:43:03;;;;;;;2.08;1.27;;;17.40;99.90;;;;;;4127120;28;20434;-69
2022/09/03 10:45:42;;;;;;;1.17;0.88;;;17.50;99.90;;;;;;4128382;28;20489;-65
2022/09/03 10:48:14;;;;;;;1.60;1.10;;;17.70;99.90;;;;;;4127350;28;20030;-65
2022/09/03 10:50:27;;;;;;;3.10;0.82;;;17.80;99.90;;;;;;4127426;28;20490;-64
2022/09/03 10:52:46;;;;;;;2.42;1.30;;;17.90;99.90;;;;;;4127814;28;20085;-66
2022/09/03 10:54:50;;;;;;;1.38;0.88;;;17.90;99.90;;;;;;4127192;28;20624;-64
2022/09/03 10:57:17;;;;;;;1.33;1.20;;;17.80;99.90;;;;;;4128115;28;20023;-62
2022/09/03 10:59:35;;;;;;;0.70;0.63;;;17.90;99.90;;;;;;4126795;28;20304;-62
2022/09/03 11:02:14;;;;;;;0.90;0.90;;;18.10;99.90;;;;;;4128590;28;20035;-61